Time;durP1;ratioP1;P1;durP2;ratioP2;P2;SDS_P1;SDS_P2;PMS_P1;PMS_P2;Temp;Humidity;BMP_temperature;BMP_pressure;BME280_temperature;BME280_humidity;BME280_pressure;Samples;Min_cycle;Max_cycle;Signal;HPM_P1;HPM_P2
2023/12/02 00:01:32;;;;;;;147.38;59.78;;;12.50;60.20;;;;;;5009291;27;96254;-81
2023/12/02 00:03:58;;;;;;;150.32;60.22;;;12.50;60.10;;;;;;5009576;27;96922;-80
2023/12/02 00:06:23;;;;;;;150.73;60.78;;;12.40;60.10;;;;;;4992684;28;97804;-82
2023/12/02 00:08:49;;;;;;;148.65;60.42;;;12.40;60.10;;;;;;5007683;27;96089;-80
2023/12/02 00:11:14;;;;;;;150.13;61.22;;;12.40;60.10;;;;;;4991701;28;94738;-80
2023/12/02 00:13:40;;;;;;;147.95;60.35;;;12.40;60.10;;;;;;5006107;27;95232;-80
2023/12/02 00:16:06;;;;;;;148.75;61.03;;;12.40;60.10;;;;;;4988739;28;98456;-80
2023/12/02 00:18:32;;;;;;;146.40;60.30;;;12.40;60.10;;;;;;5006871;27;94950;-81
2023/12/02 00:20:57;;;;;;;148.35;61.38;;;12.40;60.10;;;;;;5006991;27;95209;-80
2023/12/02 00:23:24;;;;;;;149.32;61.67;;;12.30;60.20;;;;;;5004483;27;95392;-85
2023/12/02 00:25:49;;;;;;;148.13;60.63;;;12.30;60.20;;;;;;4990427;28;97521;-84
2023/12/02 00:28:15;;;;;;;147.30;60.10;;;12.30;60.20;;;;;;4988403;28;95802;-85
2023/12/02 00:30:41;;;;;;;147.38;60.88;;;12.30;60.20;;;;;;5007334;27;95189;-84
2023/12/02 00:33:06;;;;;;;147.88;60.55;;;12.30;60.10;;;;;;5007375;27;97122;-84
2023/12/02 00:35:32;;;;;;;146.18;60.28;;;12.30;60.20;;;;;;5009849;27;95810;-86
2023/12/02 00:37:58;;;;;;;146.20;60.03;;;12.30;60.20;;;;;;5006257;27;94498;-85
2023/12/02 00:40:23;;;;;;;147.63;60.28;;;12.30;60.10;;;;;;5004476;27;95371;-82
2023/12/02 00:42:50;;;;;;;148.75;60.55;;;12.30;60.20;;;;;;5011352;27;98285;-83
2023/12/02 00:45:15;;;;;;;145.88;59.80;;;12.20;60.20;;;;;;5010916;27;95025;-84
2023/12/02 00:47:41;;;;;;;147.50;60.38;;;12.20;60.10;;;;;;5010191;27;95713;-85
2023/12/02 00:50:07;;;;;;;147.02;60.20;;;12.20;60.10;;;;;;5016897;27;94077;-85
2023/12/02 00:52:33;;;;;;;147.57;60.65;;;12.20;60.20;;;;;;4991371;27;97603;-86
2023/12/02 00:54:59;;;;;;;147.95;59.72;;;12.20;60.20;;;;;;4996126;27;95675;-85
2023/12/02 00:57:24;;;;;;;149.32;60.45;;;12.20;60.20;;;;;;4990522;28;95694;-85
2023/12/02 00:59:51;;;;;;;144.98;60.05;;;12.20;60.10;;;;;;4990491;27;94748;-85
2023/12/02 01:02:17;;;;;;;146.70;59.70;;;12.20;60.20;;;;;;5008551;27;96040;-84
2023/12/02 01:04:42;;;;;;;145.55;59.53;;;12.10;60.20;;;;;;5009172;27;96472;-86
2023/12/02 01:07:08;;;;;;;148.25;60.50;;;12.10;60.10;;;;;;5011871;27;94749;-88
2023/12/02 01:09:34;;;;;;;146.55;60.17;;;12.10;60.20;;;;;;5006964;27;95141;-86
2023/12/02 01:11:59;;;;;;;148.23;60.53;;;12.10;60.10;;;;;;5009746;27;95234;-83
2023/12/02 01:14:25;;;;;;;146.23;60.22;;;12.10;60.20;;;;;;5015851;27;94367;-85
2023/12/02 01:16:51;;;;;;;146.13;60.00;;;12.10;60.20;;;;;;4995973;27;94602;-82
2023/12/02 01:19:17;;;;;;;145.70;60.17;;;12.10;61.00;;;;;;4996110;27;95076;-82
2023/12/02 01:21:43;;;;;;;145.88;59.90;;;12.10;60.40;;;;;;5010729;27;96440;-82
2023/12/02 01:24:09;;;;;;;146.10;60.45;;;12.10;60.20;;;;;;5012653;27;98724;-82
2023/12/02 01:26:34;;;;;;;146.63;60.22;;;12.10;60.20;;;;;;5019030;27;95475;-81
2023/12/02 01:29:00;;;;;;;144.75;59.38;;;12.10;60.60;;;;;;4998715;27;95630;-82
2023/12/02 01:31:26;;;;;;;146.00;59.75;;;12.00;60.30;;;;;;5010926;27;97096;-80
2023/12/02 01:33:52;;;;;;;145.68;60.22;;;12.00;60.30;;;;;;5015410;27;95234;-81
2023/12/02 01:36:17;;;;;;;146.80;60.53;;;12.00;60.30;;;;;;5013055;27;94525;-80
2023/12/02 01:38:43;;;;;;;146.80;60.53;;;12.00;60.30;;;;;;4989790;28;99074;-79
2023/12/02 01:41:08;;;;;;;145.57;59.03;;;12.00;60.20;;;;;;5008096;27;95393;-81
2023/12/02 01:43:37;;;;;;;144.75;60.08;;;12.00;60.30;;;;;;5007851;27;94704;-82
2023/12/02 01:46:03;;;;;;;148.20;60.38;;;12.00;60.30;;;;;;5014783;28;95449;-80
2023/12/02 01:48:33;;;;;;;146.23;59.92;;;11.90;60.30;;;;;;4992528;27;95057;-80
2023/12/02 01:50:59;;;;;;;144.65;59.22;;;12.00;60.40;;;;;;4991881;27;95940;-81
2023/12/02 01:53:25;;;;;;;145.07;59.42;;;12.00;60.40;;;;;;4995352;28;97234;-80
2023/12/02 01:55:52;;;;;;;145.82;60.10;;;12.00;60.30;;;;;;5006711;27;95568;-80
2023/12/02 01:58:18;;;;;;;145.13;59.38;;;12.00;60.30;;;;;;5013413;27;97178;-79
2023/12/02 02:00:44;;;;;;;145.77;60.15;;;11.90;60.70;;;;;;4988327;27;97719;-81
2023/12/02 02:03:09;;;;;;;144.20;59.45;;;11.90;60.40;;;;;;5007176;27;94166;-80
2023/12/02 02:05:36;;;;;;;145.18;59.17;;;11.90;60.50;;;;;;4991086;28;94614;-81
2023/12/02 02:08:02;;;;;;;145.20;60.55;;;11.90;61.20;;;;;;5009274;27;95591;-79
2023/12/02 02:10:27;;;;;;;146.65;59.25;;;11.90;60.50;;;;;;5006349;27;96065;-90
2023/12/02 02:12:53;;;;;;;145.00;60.22;;;11.90;60.50;;;;;;5022123;27;95670;-85
2023/12/02 02:15:19;;;;;;;144.45;60.25;;;11.90;60.60;;;;;;5006083;28;94110;-87
2023/12/02 02:17:45;;;;;;;147.00;60.33;;;11.90;60.50;;;;;;5025882;27;94763;-88
2023/12/02 02:20:11;;;;;;;145.75;60.72;;;11.80;61.20;;;;;;5028245;27;94600;-88
2023/12/02 02:22:36;;;;;;;145.43;60.08;;;11.80;60.60;;;;;;5006766;27;96869;-83
2023/12/02 02:25:02;;;;;;;145.63;60.28;;;11.80;60.60;;;;;;5019452;27;94482;-83
2023/12/02 02:27:28;;;;;;;144.50;60.05;;;11.80;60.70;;;;;;5033658;27;93403;-85
2023/12/02 02:29:53;;;;;;;143.98;59.88;;;11.80;60.80;;;;;;5023345;27;94319;-88
2023/12/02 02:32:19;;;;;;;145.52;60.28;;;11.80;60.70;;;;;;4999683;27;97715;-86
2023/12/02 02:34:45;;;;;;;146.70;60.55;;;11.80;60.70;;;;;;4997023;27;95923;-87
2023/12/02 02:37:10;;;;;;;145.90;60.55;;;11.80;60.70;;;;;;5012316;27;95427;-87
2023/12/02 02:39:36;;;;;;;145.05;60.58;;;11.80;60.70;;;;;;5015062;27;94488;-89
2023/12/02 02:42:08;;;;;;;143.88;59.30;;;11.80;60.70;;;;;;4999668;27;96725;-88
2023/12/02 02:44:37;;;;;;;147.57;60.25;;;11.70;60.80;;;;;;5013473;27;94621;-85
2023/12/02 02:47:04;;;;;;;146.93;61.22;;;11.70;60.80;;;;;;5012561;27;98051;-87
2023/12/02 02:49:29;;;;;;;145.65;60.47;;;11.70;60.80;;;;;;5010467;27;94548;-86
2023/12/02 02:51:55;;;;;;;145.40;60.42;;;11.70;60.90;;;;;;5010134;27;94925;-87
2023/12/02 02:54:21;;;;;;;144.75;60.33;;;11.70;60.80;;;;;;5013034;27;95478;-85
2023/12/02 02:56:47;;;;;;;145.48;61.10;;;11.70;61.00;;;;;;5009144;27;94787;-87
2023/12/02 02:59:12;;;;;;;144.43;59.45;;;11.70;60.90;;;;;;4992134;28;98014;-88
2023/12/02 03:01:44;;;;;;;144.77;60.10;;;11.70;61.00;;;;;;4988950;28;98589;-83
2023/12/02 03:04:10;;;;;;;145.20;60.42;;;11.70;61.10;;;;;;4997620;28;94648;-85
2023/12/02 03:06:35;;;;;;;147.55;61.58;;;11.70;61.10;;;;;;4998091;27;95013;-85
2023/12/02 03:09:01;;;;;;;144.23;60.10;;;11.70;61.10;;;;;;4993938;28;97378;-80
2023/12/02 03:11:27;;;;;;;146.50;60.10;;;11.60;61.10;;;;;;5011038;27;96453;-82
2023/12/02 03:13:52;;;;;;;145.93;60.63;;;11.70;61.20;;;;;;4989981;28;94335;-82
2023/12/02 03:16:18;;;;;;;144.52;59.92;;;11.70;61.30;;;;;;4988403;28;94168;-82
2023/12/02 03:18:44;;;;;;;142.63;59.58;;;11.70;61.20;;;;;;5008612;27;95771;-82
2023/12/02 03:21:09;;;;;;;146.38;60.83;;;11.70;61.20;;;;;;4992494;27;97938;-82
2023/12/02 03:23:35;;;;;;;147.32;59.88;;;11.60;61.20;;;;;;4989249;28;95315;-82
2023/12/02 03:26:01;;;;;;;145.10;60.10;;;11.60;61.30;;;;;;4990207;28;95351;-81
2023/12/02 03:28:27;;;;;;;144.85;60.40;;;11.60;61.30;;;;;;5011387;27;95349;-81
2023/12/02 03:30:53;;;;;;;143.88;60.13;;;11.60;61.30;;;;;;5010717;27;95041;-90
2023/12/02 03:33:18;;;;;;;146.32;60.97;;;11.60;61.40;;;;;;4992445;28;94722;-87
2023/12/02 03:35:44;;;;;;;144.88;60.22;;;11.60;61.30;;;;;;5015893;27;94158;-86
2023/12/02 03:38:10;;;;;;;142.05;59.53;;;11.60;61.40;;;;;;5010405;27;95845;-84
2023/12/02 03:40:35;;;;;;;146.23;61.40;;;11.60;61.40;;;;;;5017223;27;93907;-89
2023/12/02 03:43:01;;;;;;;147.07;61.72;;;11.60;61.50;;;;;;5012470;27;98065;-81
2023/12/02 03:45:27;;;;;;;144.63;60.97;;;11.60;61.60;;;;;;5006335;27;95742;-81
2023/12/02 03:47:52;;;;;;;142.25;59.55;;;11.50;61.50;;;;;;4991410;27;99388;-84
2023/12/02 03:50:18;;;;;;;145.02;60.33;;;11.60;61.60;;;;;;5010251;27;95761;-84
2023/12/02 03:52:45;;;;;;;148.00;61.00;;;11.60;61.50;;;;;;5008565;27;94643;-79
2023/12/02 03:55:11;;;;;;;144.65;60.60;;;11.50;62.20;;;;;;5041728;27;98568;-83
2023/12/02 03:57:36;;;;;;;145.85;60.63;;;11.50;61.50;;;;;;4990438;22;97007;-34
2023/12/02 04:00:11;;;;;;;145.25;60.85;;;11.50;61.50;;;;;;4992870;28;95278;-34
2023/12/02 04:02:40;;;;;;;144.38;60.15;;;11.50;61.40;;;;;;4989477;22;95796;-72
2023/12/02 04:05:10;;;;;;;142.25;59.38;;;11.50;61.50;;;;;;5007866;27;94535;-72
2023/12/02 04:07:36;;;;;;;142.10;59.28;;;11.50;61.60;;;;;;5005327;27;95756;-74
2023/12/02 04:10:03;;;;;;;141.57;59.85;;;11.50;61.60;;;;;;4985872;28;95809;-74
2023/12/02 04:12:29;;;;;;;141.98;59.38;;;11.40;61.60;;;;;;4991842;28;96009;-72
2023/12/02 04:14:56;;;;;;;140.52;58.85;;;11.50;61.70;;;;;;4992841;28;96412;-74
2023/12/02 04:17:21;;;;;;;142.18;59.25;;;11.40;61.50;;;;;;4995563;28;97269;-72
2023/12/02 04:19:47;;;;;;;142.00;59.08;;;11.40;61.60;;;;;;4991178;28;95307;-72
2023/12/02 04:22:13;;;;;;;143.57;60.55;;;11.40;61.50;;;;;;4991401;28;95727;-72
2023/12/02 04:24:39;;;;;;;141.15;59.25;;;11.40;61.50;;;;;;4993361;28;94933;-74
2023/12/02 04:27:07;;;;;;;143.07;60.15;;;11.40;61.60;;;;;;4991347;28;95730;-70
2023/12/02 04:29:35;;;;;;;142.55;59.38;;;11.40;61.60;;;;;;4978047;28;97069;-74
2023/12/02 04:32:00;;;;;;;141.48;59.38;;;11.40;61.70;;;;;;4968496;28;95142;-73
2023/12/02 04:34:26;;;;;;;140.48;58.25;;;11.40;61.60;;;;;;4994493;28;96468;-73
2023/12/02 04:36:52;;;;;;;143.07;59.65;;;11.40;61.50;;;;;;4991097;28;99580;-72
2023/12/02 04:39:17;;;;;;;141.57;58.75;;;11.40;61.60;;;;;;4993310;28;94838;-73
2023/12/02 04:41:43;;;;;;;141.15;58.40;;;11.40;61.50;;;;;;4973253;28;95432;-74
2023/12/02 04:44:08;;;;;;;145.55;59.38;;;11.40;61.50;;;;;;4993433;28;96736;-72
2023/12/02 04:46:34;;;;;;;141.40;58.92;;;11.30;61.50;;;;;;4993785;28;95578;-71
2023/12/02 04:49:00;;;;;;;142.30;58.90;;;11.30;61.40;;;;;;4989467;28;94718;-73
2023/12/02 04:51:25;;;;;;;142.43;59.63;;;11.40;61.50;;;;;;4995951;28;95012;-71
2023/12/02 04:53:51;;;;;;;142.10;59.47;;;11.40;61.40;;;;;;4994315;28;94211;-71
2023/12/02 04:56:16;;;;;;;141.70;59.40;;;11.30;61.30;;;;;;4993320;28;99516;-72
2023/12/02 04:58:42;;;;;;;144.88;59.92;;;11.30;61.50;;;;;;4993323;28;96308;-73
2023/12/02 05:01:08;;;;;;;143.73;59.55;;;11.30;61.50;;;;;;4994753;28;96704;-73
2023/12/02 05:03:33;;;;;;;141.77;59.10;;;11.30;61.50;;;;;;4997416;28;95563;-72
2023/12/02 05:05:59;;;;;;;140.70;59.05;;;11.30;61.50;;;;;;4995058;28;94278;-71
2023/12/02 05:08:25;;;;;;;142.32;59.28;;;11.30;61.50;;;;;;4998528;28;96362;-71
2023/12/02 05:10:51;;;;;;;139.95;59.20;;;11.20;61.50;;;;;;4993373;28;96943;-69
2023/12/02 05:13:16;;;;;;;140.40;59.05;;;11.30;61.60;;;;;;4996786;28;95310;-73
2023/12/02 05:15:43;;;;;;;140.93;59.33;;;11.20;61.50;;;;;;4987872;28;95550;-72
2023/12/02 05:18:09;;;;;;;142.10;59.88;;;11.20;61.50;;;;;;4991699;28;95009;-70
2023/12/02 05:20:34;;;;;;;140.90;58.70;;;11.20;61.40;;;;;;4987523;28;95105;-71
2023/12/02 05:23:00;;;;;;;141.43;59.30;;;11.20;62.20;;;;;;4987265;28;95527;-72
2023/12/02 05:25:25;;;;;;;139.13;58.63;;;11.20;61.50;;;;;;4983958;28;97208;-73
2023/12/02 05:27:51;;;;;;;139.60;59.38;;;11.20;61.40;;;;;;4982688;28;97547;-74
2023/12/02 05:30:18;;;;;;;141.52;59.70;;;11.20;61.50;;;;;;4988989;28;95611;-71
2023/12/02 05:32:43;;;;;;;143.23;59.63;;;11.20;61.40;;;;;;4990698;28;95098;-72
2023/12/02 05:35:12;;;;;;;142.55;59.35;;;11.20;61.50;;;;;;4988749;28;95560;-72
2023/12/02 05:37:38;;;;;;;140.80;58.60;;;11.10;61.40;;;;;;4973558;28;97902;-71
2023/12/02 05:40:04;;;;;;;142.13;59.10;;;11.20;61.50;;;;;;4983691;28;96053;-72
2023/12/02 05:42:30;;;;;;;141.65;58.60;;;11.10;61.40;;;;;;4986070;28;94458;-72
2023/12/02 05:44:55;;;;;;;140.27;59.33;;;11.10;61.40;;;;;;4991083;28;96690;-71
2023/12/02 05:47:21;;;;;;;140.40;59.75;;;11.20;61.30;;;;;;4992523;28;95006;-73
2023/12/02 05:49:47;;;;;;;142.23;59.72;;;11.20;61.30;;;;;;4985072;28;96716;-71
2023/12/02 05:52:13;;;;;;;139.80;58.60;;;11.10;61.10;;;;;;4993279;28;95434;-73
2023/12/02 05:54:38;;;;;;;144.13;59.50;;;11.10;61.30;;;;;;4989622;28;96072;-72
2023/12/02 05:57:04;;;;;;;140.75;59.15;;;11.10;61.30;;;;;;4992626;28;95855;-73
2023/12/02 05:59:30;;;;;;;139.32;58.25;;;11.10;61.40;;;;;;4993288;28;95866;-72
2023/12/02 06:01:55;;;;;;;143.15;59.60;;;11.10;61.40;;;;;;4989180;28;95604;-73
2023/12/02 06:04:21;;;;;;;140.63;59.55;;;11.10;61.40;;;;;;4992527;28;95593;-70
2023/12/02 06:06:47;;;;;;;142.55;59.80;;;11.10;61.40;;;;;;4990026;28;95280;-70
2023/12/02 06:09:13;;;;;;;140.07;59.25;;;11.10;61.40;;;;;;4990211;28;96522;-71
2023/12/02 06:11:39;;;;;;;140.52;58.90;;;11.10;61.30;;;;;;4991773;28;97512;-73
2023/12/02 06:14:05;;;;;;;139.77;58.80;;;11.10;61.30;;;;;;4987653;28;98769;-74
2023/12/02 06:16:31;;;;;;;141.13;59.40;;;11.00;61.30;;;;;;4970949;28;98567;-71
2023/12/02 06:18:57;;;;;;;141.88;59.42;;;11.00;61.30;;;;;;4990999;28;96563;-71
2023/12/02 06:21:22;;;;;;;139.40;59.15;;;11.10;61.40;;;;;;4993076;28;96746;-72
2023/12/02 06:23:48;;;;;;;139.57;58.63;;;11.10;61.40;;;;;;4992497;28;95201;-72
2023/12/02 06:26:15;;;;;;;141.82;59.03;;;11.10;61.30;;;;;;4992097;28;95101;-73
2023/12/02 06:28:40;;;;;;;139.90;58.85;;;11.00;61.20;;;;;;4991307;28;95843;-71
2023/12/02 06:31:13;;;;;;;141.60;58.47;;;11.00;61.40;;;;;;4990123;28;94455;-72
2023/12/02 06:33:38;;;;;;;139.82;58.47;;;11.00;61.30;;;;;;4991639;28;96114;-72
2023/12/02 06:36:05;;;;;;;140.95;59.17;;;11.00;61.40;;;;;;4986601;28;94560;-71
2023/12/02 06:38:30;;;;;;;139.00;58.55;;;11.00;61.00;;;;;;4988299;28;95893;-71
2023/12/02 06:40:56;;;;;;;140.18;59.20;;;11.00;60.90;;;;;;4985327;28;96034;-72
2023/12/02 06:43:21;;;;;;;139.90;58.67;;;11.10;60.80;;;;;;4993357;28;95370;-74
2023/12/02 06:45:47;;;;;;;140.00;59.25;;;11.10;60.80;;;;;;4989410;28;98703;-74
2023/12/02 06:48:13;;;;;;;141.40;59.40;;;11.10;60.70;;;;;;4996820;28;95246;-74
2023/12/02 06:50:38;;;;;;;140.60;58.95;;;11.10;60.60;;;;;;4989825;28;95513;-74
2023/12/02 06:53:04;;;;;;;141.45;58.90;;;11.10;60.50;;;;;;4985671;28;96385;-73
2023/12/02 06:55:33;;;;;;;140.90;58.95;;;11.10;60.30;;;;;;4993326;28;96846;-72
2023/12/02 06:57:59;;;;;;;139.32;58.83;;;11.00;60.50;;;;;;4990432;28;94903;-73
2023/12/02 07:00:25;;;;;;;142.50;59.67;;;11.00;60.40;;;;;;4996130;28;94517;-70
2023/12/02 07:02:51;;;;;;;140.40;58.95;;;11.00;60.20;;;;;;5008424;22;95921;-86
2023/12/02 07:05:17;;;;;;;138.18;57.70;;;11.00;60.40;;;;;;5000904;28;95013;-86
2023/12/02 07:07:42;;;;;;;141.13;58.88;;;11.00;60.40;;;;;;5002244;28;94305;-86
2023/12/02 07:10:09;;;;;;;141.65;59.78;;;11.00;60.30;;;;;;4999038;28;94887;-86
2023/12/02 07:12:35;;;;;;;138.75;58.10;;;11.00;60.30;;;;;;5002762;28;96047;-86
2023/12/02 07:15:02;;;;;;;140.18;58.00;;;11.00;60.50;;;;;;4983802;28;96877;-86
2023/12/02 07:17:28;;;;;;;140.38;58.63;;;11.00;60.50;;;;;;4983176;28;95336;-87
2023/12/02 07:19:53;;;;;;;143.52;59.08;;;11.00;60.40;;;;;;5003560;28;94487;-87
2023/12/02 07:22:19;;;;;;;141.50;58.80;;;11.00;60.20;;;;;;4983943;28;96775;-87
2023/12/02 07:24:45;;;;;;;140.65;58.72;;;11.00;60.30;;;;;;5002211;28;95331;-86
2023/12/02 07:27:10;;;;;;;145.70;59.45;;;11.00;60.00;;;;;;5000376;28;96019;-86
2023/12/02 07:29:38;;;;;;;142.35;58.53;;;11.00;60.20;;;;;;5003510;28;94746;-86
2023/12/02 07:32:03;;;;;;;144.68;59.03;;;11.00;60.20;;;;;;4984231;28;97116;-87
2023/12/02 07:34:29;;;;;;;141.02;58.55;;;11.00;60.20;;;;;;4997981;28;94248;-86
2023/12/02 07:36:55;;;;;;;140.25;59.17;;;11.00;60.20;;;;;;5003756;28;95697;-86
2023/12/02 07:39:20;;;;;;;140.75;58.90;;;11.00;60.10;;;;;;5002507;28;99198;-86
2023/12/02 07:41:46;;;;;;;142.57;59.47;;;11.00;60.20;;;;;;5000145;28;95800;-86
2023/12/02 07:44:11;;;;;;;140.55;58.90;;;11.00;60.10;;;;;;4983769;28;97331;-86
2023/12/02 07:46:37;;;;;;;140.48;58.83;;;11.00;60.10;;;;;;4999182;28;97414;-85
2023/12/02 07:49:03;;;;;;;139.73;58.75;;;11.00;60.20;;;;;;4988012;28;94958;-85
2023/12/02 07:51:29;;;;;;;140.32;58.95;;;11.00;60.20;;;;;;5001264;28;95365;-85
2023/12/02 07:53:54;;;;;;;139.30;58.50;;;11.00;60.30;;;;;;5003623;28;95942;-85
2023/12/02 07:56:20;;;;;;;142.73;58.60;;;11.00;60.30;;;;;;5005846;28;94518;-85
2023/12/02 07:58:45;;;;;;;141.10;58.25;;;11.00;60.10;;;;;;5007450;28;95497;-84
2023/12/02 08:01:11;;;;;;;142.20;59.22;;;11.00;60.10;;;;;;5006782;28;95963;-85
2023/12/02 08:03:37;;;;;;;139.73;58.97;;;11.00;60.00;;;;;;5005611;28;95080;-83
2023/12/02 08:06:03;;;;;;;141.82;59.15;;;11.00;60.00;;;;;;5014753;28;94350;-85
2023/12/02 08:08:28;;;;;;;141.90;59.05;;;11.00;59.90;;;;;;4997848;28;94684;-86
2023/12/02 08:10:55;;;;;;;142.10;59.03;;;11.00;59.90;;;;;;4985300;28;97265;-89
2023/12/02 08:13:21;;;;;;;142.50;58.72;;;10.90;59.90;;;;;;5005823;28;94697;-89
2023/12/02 08:15:46;;;;;;;142.20;59.75;;;10.90;60.00;;;;;;4999133;28;94808;-90
2023/12/02 08:18:12;;;;;;;141.05;59.63;;;10.90;59.90;;;;;;5000223;28;93912;-90
2023/12/02 08:20:38;;;;;;;141.95;59.50;;;10.90;59.90;;;;;;4985415;28;96759;-84
2023/12/02 08:23:03;;;;;;;141.43;59.20;;;10.90;60.00;;;;;;5005319;28;94293;-85
2023/12/02 08:25:29;;;;;;;141.93;60.13;;;10.80;60.00;;;;;;4995990;28;95908;-89
2023/12/02 08:27:55;;;;;;;145.27;60.60;;;10.90;60.00;;;;;;5000819;28;94965;-88
2023/12/02 08:30:20;;;;;;;146.90;60.08;;;10.80;60.20;;;;;;5004477;28;95545;-91
2023/12/02 08:32:46;;;;;;;142.93;59.28;;;10.90;61.10;;;;;;4992982;28;97029;-85
2023/12/02 08:35:12;;;;;;;144.13;59.15;;;11.00;60.10;;;;;;5011243;28;94848;-85
2023/12/02 08:37:38;;;;;;;141.57;59.50;;;11.10;59.50;;;;;;5005430;28;93953;-84
2023/12/02 08:40:05;;;;;;;143.38;58.65;;;11.20;59.10;;;;;;5005631;28;96175;-85
2023/12/02 08:42:31;;;;;;;143.50;59.15;;;11.30;58.80;;;;;;5002050;28;95892;-85
2023/12/02 08:44:56;;;;;;;144.95;59.20;;;11.40;58.60;;;;;;4999098;28;94457;-85
2023/12/02 08:47:22;;;;;;;151.68;68.22;;;11.40;58.50;;;;;;5001059;28;95315;-84
2023/12/02 08:49:48;;;;;;;155.30;68.43;;;11.40;58.40;;;;;;4995896;28;95078;-84
2023/12/02 08:52:13;;;;;;;152.27;65.53;;;11.40;58.30;;;;;;5001346;28;96670;-84
2023/12/02 08:54:39;;;;;;;149.77;64.47;;;11.50;58.20;;;;;;4994028;28;95202;-84
2023/12/02 08:57:05;;;;;;;147.98;64.18;;;11.60;58.00;;;;;;5001931;28;94763;-84
2023/12/02 08:59:31;;;;;;;147.10;63.97;;;11.80;57.80;;;;;;4995949;28;97690;-85
2023/12/02 09:01:58;;;;;;;149.00;64.78;;;11.80;57.50;;;;;;4997050;28;94844;-84
2023/12/02 09:04:25;;;;;;;152.77;65.65;;;11.90;57.40;;;;;;4995819;28;95356;-85
2023/12/02 09:06:50;;;;;;;150.43;64.82;;;12.00;57.20;;;;;;5001887;28;94625;-84
2023/12/02 09:09:16;;;;;;;150.25;63.70;;;12.10;57.10;;;;;;5001936;28;94133;-84
2023/12/02 09:11:42;;;;;;;148.27;62.70;;;12.20;57.00;;;;;;4995393;28;95882;-84
2023/12/02 09:14:07;;;;;;;147.75;63.33;;;12.30;56.80;;;;;;5002056;28;94756;-84
2023/12/02 09:16:33;;;;;;;148.40;62.95;;;12.40;56.60;;;;;;5007448;28;94695;-85
2023/12/02 09:18:59;;;;;;;149.07;63.35;;;12.40;56.50;;;;;;5005827;28;96116;-86
2023/12/02 09:21:44;;;;;;;150.52;63.50;;;12.40;56.40;;;;;;5001385;28;94369;-86
2023/12/02 09:24:34;;;;;;;151.75;63.25;;;12.40;56.40;;;;;;4997815;28;94681;-85
2023/12/02 09:27:00;;;;;;;149.75;62.25;;;12.50;56.70;;;;;;4983951;28;94697;-83
2023/12/02 09:29:33;;;;;;;148.80;62.90;;;12.40;56.80;;;;;;5000325;28;96125;-83
2023/12/02 09:32:07;;;;;;;148.80;61.95;;;12.40;56.70;;;;;;5004891;28;95515;-85
2023/12/02 09:34:42;;;;;;;148.50;62.65;;;12.40;56.90;;;;;;5000556;28;95087;-85
2023/12/02 09:37:46;;;;;;;156.15;69.63;;;12.40;56.90;;;;;;5005830;28;95409;-83
2023/12/02 09:40:36;;;;;;;157.13;69.53;;;12.50;57.10;;;;;;4991885;28;95234;-84
2023/12/02 09:43:08;;;;;;;158.32;68.35;;;12.70;57.40;;;;;;4991519;28;95537;-87
2023/12/02 09:45:41;;;;;;;155.55;68.03;;;13.00;56.80;;;;;;4996266;28;95605;-85
2023/12/02 09:48:29;;;;;;;156.68;66.72;;;13.30;56.30;;;;;;4991980;28;94694;-85
2023/12/02 09:51:11;;;;;;;158.30;68.00;;;13.50;56.30;;;;;;4979432;28;97215;-85
2023/12/02 09:53:54;;;;;;;158.93;68.35;;;13.70;55.70;;;;;;5000109;22;97443;-70
2023/12/02 09:56:24;;;;;;;155.68;67.15;;;13.90;55.60;;;;;;4983544;28;95930;-74
2023/12/02 09:59:03;;;;;;;155.75;67.85;;;13.90;55.40;;;;;;4987147;28;95680;-73
2023/12/02 10:01:36;;;;;;;159.85;67.45;;;14.00;55.20;;;;;;4964100;28;96375;-72
2023/12/02 10:04:25;;;;;;;157.60;67.00;;;14.00;55.40;;;;;;4984904;28;96441;-72
2023/12/02 10:06:56;;;;;;;155.95;65.60;;;14.00;55.50;;;;;;5010700;22;96371;-78
2023/12/02 10:09:31;;;;;;;159.60;67.18;;;14.00;56.00;;;;;;5003328;27;95537;-76
2023/12/02 10:12:16;;;;;;;158.10;66.85;;;14.10;55.60;;;;;;4992480;27;98306;-78
2023/12/02 10:14:45;;;;;;;155.60;66.32;;;14.20;55.10;;;;;;4999484;27;94779;-76
2023/12/02 10:17:11;;;;;;;157.43;65.45;;;14.40;55.00;;;;;;5003723;27;95712;-78
2023/12/02 10:19:51;;;;;;;159.52;67.28;;;14.40;54.80;;;;;;5008438;27;97484;-79
2023/12/02 10:22:19;;;;;;;157.45;66.53;;;14.40;55.10;;;;;;5008804;27;96845;-80
2023/12/02 10:25:04;;;;;;;161.07;67.38;;;14.50;55.30;;;;;;5005559;27;96441;-79
2023/12/02 10:27:35;;;;;;;161.35;66.57;;;14.60;55.20;;;;;;4990458;28;96108;-78
2023/12/02 10:30:00;;;;;;;163.32;66.40;;;14.60;55.10;;;;;;4983444;28;95092;-79
2023/12/02 10:32:33;;;;;;;157.23;65.88;;;14.70;55.00;;;;;;4961694;28;97923;-79
2023/12/02 10:35:28;;;;;;;162.57;65.75;;;14.80;54.80;;;;;;4969360;28;97648;-78
2023/12/02 10:38:17;;;;;;;157.55;66.63;;;14.80;54.80;;;;;;4983089;28;94992;-79
2023/12/02 10:40:55;;;;;;;156.27;64.18;;;14.90;55.00;;;;;;4984882;28;94624;-81
2023/12/02 10:43:41;;;;;;;158.60;67.93;;;14.80;55.10;;;;;;4986093;28;94940;-83
2023/12/02 10:46:10;;;;;;;154.98;64.15;;;14.80;55.50;;;;;;4989937;28;95022;-82
2023/12/02 10:48:37;;;;;;;158.73;64.28;;;14.80;55.90;;;;;;4984738;28;96478;-81
2023/12/02 10:51:03;;;;;;;156.40;64.50;;;14.70;56.20;;;;;;4996131;22;95604;-41
2023/12/02 10:53:32;;;;;;;156.25;65.53;;;14.70;56.60;;;;;;4981434;28;95074;-44
2023/12/02 10:56:01;;;;;;;155.48;65.43;;;14.80;56.30;;;;;;4983909;28;98006;-44
2023/12/02 10:58:28;;;;;;;160.68;65.85;;;14.80;56.40;;;;;;4983600;28;95618;-41
2023/12/02 11:01:02;;;;;;;155.23;66.00;;;14.80;56.30;;;;;;4983846;28;99220;-44
2023/12/02 11:03:40;;;;;;;157.45;66.85;;;14.90;55.90;;;;;;4996794;22;95906;-76
2023/12/02 11:06:16;;;;;;;158.15;65.60;;;15.10;55.50;;;;;;4985781;28;94821;-72
2023/12/02 11:08:53;;;;;;;155.50;64.68;;;15.20;55.20;;;;;;4959458;28;99725;-73
2023/12/02 11:11:46;;;;;;;160.05;65.82;;;15.20;55.20;;;;;;4979178;28;97324;-71
2023/12/02 11:14:17;;;;;;;160.95;65.93;;;15.30;54.90;;;;;;4975900;28;96080;-74
2023/12/02 11:17:01;;;;;;;156.38;66.00;;;15.40;54.70;;;;;;4961725;28;98631;-76
2023/12/02 11:19:41;;;;;;;157.80;65.57;;;15.40;54.10;;;;;;4978664;28;94671;-74
2023/12/02 11:22:16;;;;;;;161.55;64.70;;;15.50;53.80;;;;;;4983277;28;95420;-72
2023/12/02 11:25:06;;;;;;;156.90;65.53;;;15.60;53.70;;;;;;4978544;28;95757;-72
2023/12/02 11:28:09;;;;;;;161.15;65.80;;;15.60;53.60;;;;;;4983478;28;96817;-72
2023/12/02 11:30:40;;;;;;;160.27;66.63;;;15.60;53.60;;;;;;4977553;28;96407;-76
2023/12/02 11:33:27;;;;;;;159.18;66.47;;;15.60;54.50;;;;;;4980330;28;94897;-73
2023/12/02 11:36:12;;;;;;;158.93;65.13;;;15.70;54.80;;;;;;4977933;28;96139;-75
2023/12/02 11:38:46;;;;;;;156.55;65.13;;;15.80;55.10;;;;;;4971764;28;95983;-74
2023/12/02 11:41:32;;;;;;;155.75;63.78;;;15.80;55.00;;;;;;4974143;28;96592;-75
2023/12/02 11:44:17;;;;;;;158.93;66.03;;;15.90;55.10;;;;;;4967145;28;100040;-75
2023/12/02 11:47:00;;;;;;;159.23;64.45;;;16.00;54.90;;;;;;4968648;28;95884;-73
2023/12/02 11:49:53;;;;;;;156.80;64.82;;;16.00;54.80;;;;;;4988999;28;96282;-73
2023/12/02 11:52:33;;;;;;;158.68;65.65;;;16.10;54.70;;;;;;4962659;28;95633;-75
2023/12/02 11:55:15;;;;;;;159.88;64.88;;;16.20;54.70;;;;;;4983543;28;97680;-72
2023/12/02 11:58:12;;;;;;;164.20;66.10;;;16.10;54.80;;;;;;4981133;28;95615;-71
2023/12/02 12:00:50;;;;;;;161.00;64.40;;;16.20;54.70;;;;;;4976079;28;94699;-72
2023/12/02 12:03:37;;;;;;;159.52;65.47;;;16.20;54.40;;;;;;4978808;28;94925;-71
2023/12/02 12:06:16;;;;;;;162.70;66.60;;;16.20;54.40;;;;;;4987328;22;95746;-80
2023/12/02 12:09:19;;;;;;;159.05;64.78;;;16.30;54.30;;;;;;4981584;28;96873;-80
2023/12/02 12:11:46;;;;;;;158.85;65.38;;;16.30;54.40;;;;;;4988573;28;97594;-84
2023/12/02 12:14:14;;;;;;;159.55;65.45;;;16.30;54.40;;;;;;4982550;28;95111;-85
2023/12/02 12:16:40;;;;;;;161.80;65.32;;;16.30;54.70;;;;;;4992414;28;94269;-79
2023/12/02 12:19:06;;;;;;;160.23;65.43;;;16.30;55.10;;;;;;4976618;28;97823;-82
2023/12/02 12:21:32;;;;;;;159.30;65.18;;;16.30;54.70;;;;;;4978586;28;98961;-84
2023/12/02 12:23:58;;;;;;;163.40;65.57;;;16.30;55.10;;;;;;4979500;28;94707;-82
2023/12/02 12:26:24;;;;;;;162.05;65.50;;;16.30;55.20;;;;;;4983694;28;94547;-82